Kitchener, Canada
Current Conditions -  °F | °C
As of 4:00 PM on Sunday 23 Nov 2014 (Local Time) from CYKF Reporting Station
Scattered Clouds Scattered Clouds  
Wind Chill: 41°   Ceiling: Unl
Heat Index: 46°   Visibility: 9mi
Dew Point: 43°   Wind: 12mph
Humidity: 87%   Direction: 160°SSE
Pressure: 29.83"   Gusts: NA
Location:  43.45°N, 80.49°W
Report Text: CYKF 232100Z AUTO 16010KT 9SM FEW024 SCT120 08/06 A2983 RMK SLP107
Loading
Personal Weather Stations






























Interactive Weather Map New forecast layout! Learn more

10-Day Weather Forecast

Advertisements
Track Severe Weather on mobile